Time;durP1;ratioP1;P1;durP2;ratioP2;P2;SDS_P1;SDS_P2;PMS_P1;PMS_P2;Temp;Humidity;BMP_temperature;BMP_pressure;BME280_temperature;BME280_humidity;BME280_pressure;Samples;Min_cycle;Max_cycle;Signal;HPM_P1;HPM_P2
2024/04/13 00:00:11;;;;;;;;;;;;;;;14.92;80.13;99991.30;105919;1256;74617;-84
2024/04/13 00:02:41;;;;;;;;;;;;;;;15.08;78.97;99989.29;105820;1257;68751;-84
2024/04/13 00:05:09;;;;;;;;;;;;;;;15.11;78.57;99990.16;105969;1262;72020;-82
2024/04/13 00:07:37;;;;;;;;;;;;;;;15.18;78.35;99993.27;106137;1261;61263;-82
2024/04/13 00:10:04;;;;;;;;;;;;;;;15.14;78.58;99990.29;106260;1255;61381;-83
2024/04/13 00:12:32;;;;;;;;;;;;;;;14.99;79.26;99989.73;106472;1259;74677;-83
2024/04/13 00:14:59;;;;;;;;;;;;;;;14.96;79.70;99987.77;106350;1257;68438;-84
2024/04/13 00:17:27;;;;;;;;;;;;;;;15.02;79.35;99989.23;106090;1257;72827;-82
2024/04/13 00:19:55;;;;;;;;;;;;;;;15.09;78.86;99986.31;105969;1256;61674;-83
2024/04/13 00:22:22;;;;;;;;;;;;;;;15.06;79.09;99983.77;106068;1253;61215;-82
2024/04/13 00:24:49;;;;;;;;;;;;;;;15.05;79.16;99982.16;105968;1257;73434;-83
2024/04/13 00:27:16;;;;;;;;;;;;;;;15.07;79.00;99983.00;106008;1253;68783;-83
2024/04/13 00:29:44;;;;;;;;;;;;;;;15.04;79.10;99981.77;105980;1258;71460;-82
2024/04/13 00:32:11;;;;;;;;;;;;;;;14.93;79.98;99979.40;106002;1260;61279;-83
2024/04/13 00:34:39;;;;;;;;;;;;;;;15.01;79.45;99974.52;105962;1253;61240;-82
2024/04/13 00:37:06;;;;;;;;;;;;;;;14.93;80.01;99972.11;105941;1258;73506;-82
2024/04/13 00:39:34;;;;;;;;;;;;;;;15.01;79.87;99971.67;105914;1258;68067;-83
2024/04/13 00:42:05;;;;;;;;;;;;;;;15.13;79.08;99970.02;106014;1258;72848;-84
2024/04/13 00:44:32;;;;;;;;;;;;;;;15.14;78.82;99968.30;106040;1258;61369;-85
2024/04/13 00:47:05;;;;;;;;;;;;;;;15.03;79.61;99966.59;105968;1252;61346;-84
2024/04/13 00:49:33;;;;;;;;;;;;;;;14.97;80.02;99962.16;106372;1253;74816;-85
2024/04/13 00:52:00;;;;;;;;;;;;;;;14.95;80.06;99958.85;105995;1260;67456;-84
2024/04/13 00:54:28;;;;;;;;;;;;;;;14.96;80.00;99954.11;106107;1255;70773;-85
2024/04/13 00:56:56;;;;;;;;;;;;;;;14.84;80.83;99951.30;106168;1253;61545;-83
2024/04/13 00:59:23;;;;;;;;;;;;;;;14.92;80.31;99952.21;106000;1255;61755;-84
2024/04/13 01:01:52;;;;;;;;;;;;;;;14.98;79.57;99950.86;105932;1258;74657;-84
2024/04/13 01:04:21;;;;;;;;;;;;;;;15.03;79.13;99947.11;106343;1257;68202;-85
2024/04/13 01:06:49;;;;;;;;;;;;;;;15.03;79.05;99945.98;106007;1257;71960;-84
2024/04/13 01:09:17;;;;;;;;;;;;;;;14.91;79.12;99944.23;106301;1257;61659;-85
2024/04/13 01:11:44;;;;;;;;;;;;;;;14.79;79.86;99938.95;106814;1253;61169;-86
2024/04/13 01:14:13;;;;;;;;;;;;;;;14.79;79.80;99936.95;106565;1258;74676;-86
2024/04/13 01:16:40;;;;;;;;;;;;;;;14.77;79.86;99932.03;106362;1253;66569;-86
2024/04/13 01:19:07;;;;;;;;;;;;;;;14.71;79.87;99932.52;106286;1254;72789;-85
2024/04/13 01:21:35;;;;;;;;;;;;;;;14.56;80.72;99934.58;106077;1255;61247;-85
2024/04/13 01:24:06;;;;;;;;;;;;;;;14.46;80.93;99935.04;106052;1257;61213;-84
2024/04/13 01:26:41;;;;;;;;;;;;;;;14.33;82.05;99931.95;106056;1257;73472;-84
2024/04/13 01:29:08;;;;;;;;;;;;;;;14.26;82.64;99935.02;106121;1258;69896;-84
2024/04/13 01:31:36;;;;;;;;;;;;;;;14.27;82.46;99931.47;106081;1258;71775;-84
2024/04/13 01:34:04;;;;;;;;;;;;;;;14.20;82.90;99933.23;106045;1257;61240;-84
2024/04/13 01:36:38;;;;;;;;;;;;;;;14.13;83.16;99935.45;106150;1260;61215;-82
2024/04/13 01:39:07;;;;;;;;;;;;;;;13.96;84.49;99930.06;106037;1259;74598;-83
2024/04/13 01:41:39;;;;;;;;;;;;;;;14.02;84.16;99932.94;106038;1258;67640;-83
2024/04/13 01:44:06;;;;;;;;;;;;;;;14.04;83.78;99929.75;106009;1257;72747;-82
2024/04/13 01:46:34;;;;;;;;;;;;;;;13.99;84.20;99927.92;106139;1253;61594;-83
2024/04/13 01:49:03;;;;;;;;;;;;;;;13.81;85.62;99925.34;106171;1255;61296;-82
2024/04/13 01:51:31;;;;;;;;;;;;;;;13.65;86.81;99923.02;106165;1254;72631;-83
2024/04/13 01:53:58;;;;;;;;;;;;;;;13.70;86.48;99922.77;106240;1257;70292;-82
2024/04/13 01:56:26;;;;;;;;;;;;;;;13.66;86.79;99921.68;106123;1258;72695;-83
2024/04/13 01:58:53;;;;;;;;;;;;;;;13.60;87.24;99919.27;106101;1254;61846;-85
2024/04/13 02:01:22;;;;;;;;;;;;;;;13.61;87.19;99917.77;106537;1255;61192;-85
2024/04/13 02:03:50;;;;;;;;;;;;;;;13.54;87.44;99920.39;107460;1258;73710;-86
2024/04/13 02:06:18;;;;;;;;;;;;;;;13.40;88.43;99911.88;106666;1255;68735;-86
2024/04/13 02:08:46;;;;;;;;;;;;;;;13.45;87.76;99909.48;107084;1253;72645;-86
2024/04/13 02:11:13;;;;;;;;;;;;;;;13.37;88.23;99911.70;106595;1260;61141;-86
2024/04/13 02:13:41;;;;;;;;;;;;;;;13.31;89.11;99909.89;106555;1254;61323;-86
2024/04/13 02:16:08;;;;;;;;;;;;;;;13.18;89.40;99905.82;106609;1255;73452;-85
2024/04/13 02:18:40;;;;;;;;;;;;;;;13.09;90.56;99905.94;106421;1258;68749;-85
2024/04/13 02:21:08;;;;;;;;;;;;;;;13.20;89.49;99904.65;106784;1253;71463;-86
2024/04/13 02:23:36;;;;;;;;;;;;;;;13.22;89.47;99907.45;106884;1257;61219;-85
2024/04/13 02:26:03;;;;;;;;;;;;;;;13.11;90.55;99907.51;106399;1257;61487;-85
2024/04/13 02:28:32;;;;;;;;;;;;;;;13.14;90.19;99905.38;106535;1258;74580;-84
2024/04/13 02:30:59;;;;;;;;;;;;;;;13.10;90.28;99908.46;106714;1254;68754;-86
2024/04/13 02:33:27;;;;;;;;;;;;;;;12.86;91.73;99895.83;106697;1259;72657;-85
2024/04/13 02:36:02;;;;;;;;;;;;;;;12.84;91.88;99897.66;106346;1257;61704;-83
2024/04/13 02:38:34;;;;;;;;;;;;;;;12.52;93.66;99897.70;107632;1253;61146;-85
2024/04/13 02:41:01;;;;;;;;;;;;;;;12.44;94.51;99895.34;106768;1254;73442;-85
2024/04/13 02:43:34;;;;;;;;;;;;;;;12.38;95.30;99891.36;106341;1255;68198;-85
2024/04/13 02:46:03;;;;;;;;;;;;;;;12.39;95.41;99891.73;106359;1254;71459;-83
2024/04/13 02:48:31;;;;;;;;;;;;;;;12.28;96.20;99898.59;106219;1257;61743;-85
2024/04/13 02:51:03;;;;;;;;;;;;;;;12.24;96.36;99898.88;106325;1255;61334;-85
2024/04/13 02:53:30;;;;;;;;;;;;;;;12.32;96.01;99898.57;106176;1258;74746;-83
2024/04/13 02:55:58;;;;;;;;;;;;;;;12.16;96.96;99898.38;106157;1261;68681;-81
2024/04/13 02:58:26;;;;;;;;;;;;;;;12.06;98.00;99901.79;105959;1259;72672;-82
2024/04/13 03:00:53;;;;;;;;;;;;;;;12.20;97.22;99903.86;105999;1254;61339;-84
2024/04/13 03:03:21;;;;;;;;;;;;;;;12.28;96.64;99902.20;106072;1255;61330;-83
2024/04/13 03:05:59;;;;;;;;;;;;;;;12.09;97.56;99904.35;106147;1257;73738;-87
2024/04/13 03:08:27;;;;;;;;;;;;;;;11.79;99.98;99900.75;109077;1253;67596;-85
2024/04/13 03:10:55;;;;;;;;;;;;;;;12.08;98.62;99898.64;109586;1254;71429;-84
2024/04/13 03:21:24;;;;;;;;;;;;;;;12.21;97.97;99901.98;106516;1258;74618;-87
2024/04/13 03:23:51;;;;;;;;;;;;;;;12.19;98.02;99900.56;106104;1260;69349;-85
2024/04/13 03:26:19;;;;;;;;;;;;;;;12.10;98.58;99900.42;106390;1260;70829;-83
2024/04/13 03:28:46;;;;;;;;;;;;;;;12.14;98.59;99900.09;106838;1258;61212;-84
2024/04/13 03:31:13;;;;;;;;;;;;;;;12.35;97.29;99899.41;106170;1258;61497;-83
2024/04/13 03:33:41;;;;;;;;;;;;;;;12.47;96.58;99905.48;106098;1260;74591;-84
2024/04/13 03:36:09;;;;;;;;;;;;;;;12.38;97.15;99905.56;106069;1258;67553;-83
2024/04/13 03:38:36;;;;;;;;;;;;;;;12.41;97.14;99905.98;106250;1259;71432;-84
2024/04/13 03:41:08;;;;;;;;;;;;;;;12.55;96.28;99908.29;106826;1254;61375;-84
2024/04/13 03:43:36;;;;;;;;;;;;;;;12.84;95.00;99907.52;106282;1253;61202;-86
2024/04/13 03:46:05;;;;;;;;;;;;;;;12.93;93.98;99907.51;106519;1259;74603;-85
2024/04/13 03:48:32;;;;;;;;;;;;;;;13.09;93.14;99907.76;106783;1253;68552;-86
2024/04/13 03:51:03;;;;;;;;;;;;;;;13.16;92.40;99908.45;106666;1254;72646;-86
2024/04/13 03:53:31;;;;;;;;;;;;;;;13.16;92.22;99913.63;106567;1256;61245;-85
2024/04/13 03:55:59;;;;;;;;;;;;;;;13.27;91.96;99914.52;106252;1254;62555;-85
2024/04/13 03:58:26;;;;;;;;;;;;;;;13.11;92.56;99912.67;106313;1253;74578;-86
2024/04/13 04:00:55;;;;;;;;;;;;;;;13.06;92.91;99909.52;106581;1255;68807;-85
2024/04/13 04:03:23;;;;;;;;;;;;;;;13.02;93.22;99909.89;107094;1257;71666;-84
2024/04/13 04:05:51;;;;;;;;;;;;;;;13.12;92.92;99912.52;106382;1254;61235;-85
2024/04/13 04:08:19;;;;;;;;;;;;;;;13.06;93.24;99911.14;106000;1254;61309;-86
2024/04/13 04:10:46;;;;;;;;;;;;;;;13.05;93.89;99914.38;107454;1254;73399;-87
2024/04/13 04:13:15;;;;;;;;;;;;;;;13.16;93.42;99912.60;108343;1254;67284;-87
2024/04/13 04:15:46;;;;;;;;;;;;;;;13.04;94.13;99911.25;106550;1257;71462;-85
2024/04/13 04:18:13;;;;;;;;;;;;;;;13.27;93.13;99916.27;106207;1254;61613;-87
2024/04/13 04:20:41;;;;;;;;;;;;;;;13.37;92.67;99912.45;106254;1257;61221;-86
2024/04/13 04:23:08;;;;;;;;;;;;;;;13.49;91.97;99910.78;106241;1260;73719;-85
2024/04/13 04:25:35;;;;;;;;;;;;;;;13.26;93.35;99911.27;106625;1254;68734;-85
2024/04/13 04:28:05;;;;;;;;;;;;;;;13.42;92.92;99907.63;106683;1254;72664;-87
2024/04/13 04:30:32;;;;;;;;;;;;;;;13.36;93.68;99905.61;106429;1260;61273;-86
2024/04/13 04:33:00;;;;;;;;;;;;;;;13.45;93.48;99904.20;106228;1266;61181;-84
2024/04/13 04:35:28;;;;;;;;;;;;;;;13.46;93.59;99897.88;106266;1255;74720;-85
2024/04/13 04:37:57;;;;;;;;;;;;;;;13.49;93.40;99894.34;106552;1254;67289;-85
2024/04/13 04:40:24;;;;;;;;;;;;;;;13.61;93.24;99894.15;106225;1254;72800;-85
2024/04/13 04:42:52;;;;;;;;;;;;;;;13.94;92.00;99893.31;106433;1257;61664;-85
2024/04/13 04:45:20;;;;;;;;;;;;;;;14.05;91.61;99895.21;106508;1257;61233;-86
2024/04/13 04:47:49;;;;;;;;;;;;;;;14.17;91.44;99892.69;106249;1257;74550;-86
2024/04/13 04:50:17;;;;;;;;;;;;;;;14.24;90.87;99888.96;106213;1257;67532;-82
2024/04/13 04:52:44;;;;;;;;;;;;;;;14.22;90.90;99887.07;105952;1257;71555;-85
2024/04/13 04:55:12;;;;;;;;;;;;;;;14.25;90.93;99894.27;105841;1260;61257;-82
2024/04/13 04:57:39;;;;;;;;;;;;;;;14.23;90.83;99887.08;105818;1254;61375;-83
2024/04/13 05:00:13;;;;;;;;;;;;;;;14.25;91.01;99887.57;105907;1254;74609;-82
2024/04/13 05:02:41;;;;;;;;;;;;;;;14.46;90.16;99883.83;105998;1255;68733;-82
2024/04/13 05:05:09;;;;;;;;;;;;;;;14.39;90.36;99879.40;106141;1258;72642;-83
2024/04/13 05:07:38;;;;;;;;;;;;;;;14.74;89.23;99883.02;106451;1254;61683;-84
2024/04/13 05:10:08;;;;;;;;;;;;;;;14.92;87.93;99882.33;106496;1256;61161;-85
2024/04/13 05:12:35;;;;;;;;;;;;;;;15.08;86.77;99879.59;106349;1257;74645;-82
2024/04/13 05:15:04;;;;;;;;;;;;;;;15.27;86.27;99881.56;106532;1254;68434;-85
2024/04/13 05:17:31;;;;;;;;;;;;;;;15.50;84.88;99879.23;106492;1251;72708;-84
2024/04/13 05:19:59;;;;;;;;;;;;;;;15.63;84.28;99876.58;106669;1256;61214;-85
2024/04/13 05:22:28;;;;;;;;;;;;;;;15.23;85.51;99872.77;106729;1254;61227;-85
2024/04/13 05:24:56;;;;;;;;;;;;;;;15.34;85.77;99876.71;106590;1261;74658;-86
2024/04/13 05:27:24;;;;;;;;;;;;;;;15.50;85.27;99871.66;106514;1258;66820;-85
2024/04/13 05:29:53;;;;;;;;;;;;;;;15.66;84.40;99874.78;106381;1260;71509;-86
2024/04/13 05:32:21;;;;;;;;;;;;;;;15.61;85.07;99873.12;106272;1260;61298;-85
2024/04/13 05:34:49;;;;;;;;;;;;;;;15.91;84.21;99869.72;106302;1260;61171;-85
2024/04/13 05:37:16;;;;;;;;;;;;;;;16.09;82.99;99870.19;106147;1254;192420;-82
2024/04/13 05:39:43;;;;;;;;;;;;;;;16.16;82.60;99868.52;105975;1261;67558;-83
2024/04/13 05:42:11;;;;;;;;;;;;;;;16.15;81.72;99863.27;106449;1255;72650;-84
2024/04/13 05:44:40;;;;;;;;;;;;;;;16.30;81.19;99857.77;106320;1258;61666;-83
2024/04/13 05:47:07;;;;;;;;;;;;;;;16.78;79.08;99858.95;106184;1254;61316;-84
2024/04/13 05:49:36;;;;;;;;;;;;;;;17.19;76.41;99856.88;106277;1258;75174;-87
2024/04/13 05:52:04;;;;;;;;;;;;;;;17.29;73.75;99859.96;106799;1257;68765;-85
2024/04/13 05:54:31;;;;;;;;;;;;;;;17.46;73.00;99857.63;106491;1257;71465;-87
2024/04/13 05:56:59;;;;;;;;;;;;;;;17.76;71.63;99861.83;106175;1255;61659;-87
2024/04/13 05:59:26;;;;;;;;;;;;;;;17.75;70.98;99862.10;106418;1254;61260;-86
2024/04/13 06:01:54;;;;;;;;;;;;;;;17.79;70.71;99865.87;106693;1257;74589;-85
2024/04/13 06:04:21;;;;;;;;;;;;;;;17.45;72.02;99862.30;106366;1255;67393;-86
2024/04/13 06:06:50;;;;;;;;;;;;;;;16.90;74.78;99859.73;105938;1255;72600;-85
2024/04/13 06:09:18;;;;;;;;;;;;;;;16.87;75.82;99859.36;106240;1260;63804;-88
2024/04/13 06:11:46;;;;;;;;;;;;;;;17.15;74.71;99858.55;106109;1254;61410;-86
2024/04/13 06:14:15;;;;;;;;;;;;;;;17.14;73.75;99858.64;105952;1255;73481;-87
2024/04/13 06:16:44;;;;;;;;;;;;;;;17.18;73.19;99859.34;105963;1254;68755;-87
2024/04/13 06:19:13;;;;;;;;;;;;;;;17.20;72.44;99857.19;106305;1260;71911;-86
2024/04/13 06:21:41;;;;;;;;;;;;;;;17.01;73.81;99854.77;106206;1254;61880;-87
2024/04/13 06:24:08;;;;;;;;;;;;;;;17.05;74.84;99854.98;106002;1256;61282;-85
2024/04/13 06:26:35;;;;;;;;;;;;;;;17.00;74.78;99852.66;106071;1260;74590;-87
2024/04/13 06:29:03;;;;;;;;;;;;;;;17.08;74.76;99859.52;105936;1262;67548;-86
2024/04/13 06:31:30;;;;;;;;;;;;;;;17.07;74.65;99855.23;105806;1262;72687;-85
2024/04/13 06:33:57;;;;;;;;;;;;;;;17.08;74.65;99855.29;105866;1264;61394;-86
2024/04/13 06:36:25;;;;;;;;;;;;;;;17.23;73.98;99859.13;105808;1264;61257;-84
2024/04/13 06:38:53;;;;;;;;;;;;;;;17.30;73.43;99859.23;105883;1258;73500;-84
2024/04/13 06:41:20;;;;;;;;;;;;;;;17.45;71.76;99858.56;105944;1261;68400;-84
2024/04/13 06:43:48;;;;;;;;;;;;;;;17.41;71.66;99856.34;105878;1256;72973;-84
2024/04/13 06:46:24;;;;;;;;;;;;;;;17.44;71.63;99855.10;105947;1257;61676;-84
2024/04/13 06:48:52;;;;;;;;;;;;;;;17.73;70.68;99858.62;106015;1260;61336;-86
2024/04/13 06:51:20;;;;;;;;;;;;;;;18.16;69.11;99859.35;106189;1256;73448;-84
2024/04/13 06:53:48;;;;;;;;;;;;;;;18.27;67.70;99860.08;106478;1256;67958;-84
2024/04/13 06:56:16;;;;;;;;;;;;;;;18.51;65.10;99855.92;106279;1256;73083;-86
2024/04/13 06:58:44;;;;;;;;;;;;;;;18.37;65.27;99862.25;106842;1258;61252;-86
2024/04/13 07:01:12;;;;;;;;;;;;;;;18.23;66.61;99854.33;106671;1253;61230;-88
2024/04/13 07:03:40;;;;;;;;;;;;;;;18.51;65.42;99847.48;106573;1253;74597;-88
2024/04/13 07:06:08;;;;;;;;;;;;;;;18.58;65.70;99846.33;107106;1254;67242;-85
2024/04/13 07:08:35;;;;;;;;;;;;;;;18.66;64.79;99842.94;106519;1254;72672;-87
2024/04/13 07:11:12;;;;;;;;;;;;;;;19.00;62.92;99846.77;106532;1257;61637;-88
2024/04/13 07:13:40;;;;;;;;;;;;;;;18.64;62.91;99840.20;106117;1254;61299;-82
2024/04/13 07:16:08;;;;;;;;;;;;;;;18.32;64.39;99841.61;106263;1253;73482;-84
2024/04/13 07:18:35;;;;;;;;;;;;;;;18.26;65.24;99834.02;106303;1257;67650;-88
2024/04/13 07:21:03;;;;;;;;;;;;;;;18.47;64.96;99835.17;106177;1257;71373;-80
2024/04/13 07:23:30;;;;;;;;;;;;;;;18.44;64.02;99831.96;106453;1253;61376;-84
2024/04/13 07:26:01;;;;;;;;;;;;;;;18.80;61.26;99836.16;106547;1253;61364;-85
2024/04/13 07:28:29;;;;;;;;;;;;;;;19.01;60.43;99834.98;106695;1254;74722;-87
2024/04/13 07:30:57;;;;;;;;;;;;;;;19.47;59.49;99835.77;106382;1254;68762;-83
2024/04/13 07:33:26;;;;;;;;;;;;;;;19.37;59.47;99829.88;106404;1254;72651;-84
2024/04/13 07:35:54;;;;;;;;;;;;;;;19.91;57.36;99828.70;106341;1254;61228;-82
2024/04/13 07:38:21;;;;;;;;;;;;;;;20.18;55.28;99826.98;106491;1257;61228;-85
2024/04/13 07:40:48;;;;;;;;;;;;;;;20.18;54.86;99826.90;106629;1253;73449;-84
2024/04/13 07:43:16;;;;;;;;;;;;;;;19.86;56.42;99822.83;106611;1254;68841;-85
2024/04/13 07:45:44;;;;;;;;;;;;;;;20.16;55.66;99825.29;106288;1257;72849;-85
2024/04/13 07:48:12;;;;;;;;;;;;;;;20.11;54.83;99822.05;106597;1254;61366;-85
2024/04/13 07:50:40;;;;;;;;;;;;;;;20.02;55.06;99815.90;106452;1257;61200;-85
2024/04/13 07:53:07;;;;;;;;;;;;;;;19.73;55.93;99818.52;106200;1254;74608;-84
2024/04/13 07:55:35;;;;;;;;;;;;;;;19.70;55.86;99817.70;106369;1257;67587;-82
2024/04/13 07:58:02;;;;;;;;;;;;;;;19.54;56.91;99817.31;106285;1253;72605;-84
2024/04/13 08:00:29;;;;;;;;;;;;;;;19.74;56.62;99817.80;106398;1253;61302;-84
2024/04/13 08:02:57;;;;;;;;;;;;;;;20.21;55.00;99817.89;106400;1253;61346;-82
2024/04/13 08:05:24;;;;;;;;;;;;;;;20.57;54.25;99814.27;106352;1257;73437;-85
2024/04/13 08:07:52;;;;;;;;;;;;;;;20.70;53.37;99816.55;106846;1254;67087;-86
2024/04/13 08:10:19;;;;;;;;;;;;;;;20.69;52.52;99812.66;106375;1257;73126;-87
2024/04/13 08:12:47;;;;;;;;;;;;;;;20.63;52.68;99814.84;106457;1254;61164;-84
2024/04/13 08:15:15;;;;;;;;;;;;;;;20.32;52.80;99809.73;106316;1259;61230;-85
2024/04/13 08:17:44;;;;;;;;;;;;;;;19.93;53.13;99799.78;106276;1254;74582;-85
2024/04/13 08:20:11;;;;;;;;;;;;;;;19.97;53.05;99806.27;106301;1254;68786;-78
2024/04/13 08:22:42;;;;;;;;;;;;;;;19.98;52.84;99800.83;106486;1257;72664;-86
2024/04/13 08:25:09;;;;;;;;;;;;;;;19.58;54.94;99793.80;106755;1259;61333;-84
2024/04/13 08:27:37;;;;;;;;;;;;;;;19.59;55.42;99787.71;106431;1254;61157;-84
2024/04/13 08:30:05;;;;;;;;;;;;;;;19.99;54.63;99790.52;106362;1254;74567;-86
2024/04/13 08:37:41;;;;;;;;;;;;;;;20.81;49.70;99782.64;106642;1254;72634;-81
2024/04/13 08:40:11;;;;;;;;;;;;;;;20.49;50.28;99779.59;106156;1258;61328;-83
2024/04/13 08:42:43;;;;;;;;;;;;;;;20.56;50.23;99779.40;106249;1258;61232;-84
2024/04/13 08:45:12;;;;;;;;;;;;;;;20.69;49.35;99774.18;106380;1253;74460;-85
2024/04/13 08:47:41;;;;;;;;;;;;;;;20.85;49.68;99778.13;106430;1252;67643;-87
2024/04/13 08:50:10;;;;;;;;;;;;;;;20.79;49.93;99776.11;106342;1253;72628;-85
2024/04/13 08:52:39;;;;;;;;;;;;;;;20.60;49.79;99770.69;106475;1253;61320;-83
2024/04/13 08:55:08;;;;;;;;;;;;;;;20.19;50.65;99762.33;106665;1257;62619;-85
2024/04/13 08:57:36;;;;;;;;;;;;;;;20.20;50.70;99757.77;106593;1257;74630;-87
2024/04/13 09:00:19;;;;;;;;;;;;;;;20.11;50.59;99757.02;106745;1252;68818;-86
2024/04/13 09:02:50;;;;;;;;;;;;;;;19.99;51.03;99757.16;106842;1255;71310;-87
2024/04/13 09:05:17;;;;;;;;;;;;;;;20.00;50.84;99752.03;106864;1258;61202;-83
2024/04/13 09:07:45;;;;;;;;;;;;;;;19.79;51.64;99751.23;106488;1253;61113;-83
2024/04/13 09:10:13;;;;;;;;;;;;;;;19.91;51.26;99748.32;106695;1256;74617;-83
2024/04/13 09:12:42;;;;;;;;;;;;;;;20.05;50.92;99749.28;106658;1259;68159;-85
2024/04/13 09:15:09;;;;;;;;;;;;;;;20.13;50.65;99745.16;106679;1253;71693;-80
2024/04/13 09:17:37;;;;;;;;;;;;;;;20.39;49.54;99741.20;106473;1257;61311;-86
2024/04/13 09:20:09;;;;;;;;;;;;;;;20.71;48.96;99744.85;106655;1258;59819;-84
2024/04/13 09:22:39;;;;;;;;;;;;;;;20.71;48.03;99742.14;106508;1254;74898;-85
2024/04/13 09:25:08;;;;;;;;;;;;;;;20.84;47.74;99745.42;106756;1255;70992;-85
2024/04/13 09:27:41;;;;;;;;;;;;;;;21.02;47.34;99747.73;109584;1253;71579;-86
2024/04/13 09:30:09;;;;;;;;;;;;;;;21.21;47.08;99745.80;109642;1254;58967;-85
2024/04/13 09:32:37;;;;;;;;;;;;;;;21.37;46.78;99740.61;109600;1253;60826;-83
2024/04/13 09:35:09;;;;;;;;;;;;;;;21.77;45.79;99739.66;108584;1253;73494;-80
2024/04/13 09:37:37;;;;;;;;;;;;;;;21.92;45.02;99735.08;108291;1253;67579;-81
2024/04/13 09:40:06;;;;;;;;;;;;;;;22.02;43.99;99724.44;107302;1253;71403;-84
2024/04/13 09:42:33;;;;;;;;;;;;;;;21.87;43.87;99725.66;106622;1254;61256;-83
2024/04/13 09:45:05;;;;;;;;;;;;;;;21.13;45.17;99723.86;106375;1253;61443;-86
2024/04/13 09:47:33;;;;;;;;;;;;;;;21.02;45.30;99721.02;106078;1253;74523;-82
2024/04/13 09:50:00;;;;;;;;;;;;;;;21.01;45.91;99721.51;106315;1253;68759;-81
2024/04/13 09:52:28;;;;;;;;;;;;;;;21.16;45.80;99723.50;106413;1255;72377;-83
2024/04/13 09:54:58;;;;;;;;;;;;;;;20.84;46.28;99715.02;106500;1253;61180;-86
2024/04/13 09:57:29;;;;;;;;;;;;;;;20.72;47.06;99709.14;106395;1258;61170;-83
2024/04/13 09:59:57;;;;;;;;;;;;;;;21.62;46.26;99714.41;106120;1253;74650;-87
2024/04/13 10:02:25;;;;;;;;;;;;;;;21.95;44.73;99707.96;106228;1253;68859;-83
2024/04/13 10:04:52;;;;;;;;;;;;;;;21.47;44.95;99713.54;106465;1253;72618;-80
2024/04/13 10:07:20;;;;;;;;;;;;;;;20.86;45.75;99707.42;106398;1253;61246;-85
2024/04/13 10:09:49;;;;;;;;;;;;;;;21.03;45.90;99703.73;106629;1254;61296;-83
2024/04/13 10:12:18;;;;;;;;;;;;;;;21.13;45.58;99702.09;106307;1253;73512;-84
2024/04/13 10:14:46;;;;;;;;;;;;;;;21.87;45.03;99704.79;106486;1253;67298;-87
2024/04/13 10:17:14;;;;;;;;;;;;;;;22.31;43.81;99700.51;106426;1253;74940;-85
2024/04/13 10:19:45;;;;;;;;;;;;;;;22.37;42.96;99699.02;106181;1254;61366;-84
2024/04/13 10:22:12;;;;;;;;;;;;;;;21.92;43.82;99692.38;106464;1258;61160;-85
2024/04/13 10:25:02;;;;;;;;;;;;;;;21.71;44.16;99697.04;106161;1253;73654;-82
2024/04/13 10:27:31;;;;;;;;;;;;;;;21.84;43.19;99689.38;106359;1257;67495;-84
2024/04/13 10:30:03;;;;;;;;;;;;;;;21.67;42.28;99691.33;106480;1255;72645;-86
2024/04/13 10:32:30;;;;;;;;;;;;;;;21.79;42.25;99691.59;106742;1257;61244;-86
2024/04/13 10:35:08;;;;;;;;;;;;;;;21.98;41.76;99681.57;106698;1255;61135;-86
2024/04/13 10:37:35;;;;;;;;;;;;;;;22.22;41.35;99677.54;106610;1253;74934;-86
2024/04/13 10:40:04;;;;;;;;;;;;;;;22.33;41.52;99679.81;106614;1253;68746;-87
2024/04/13 10:42:35;;;;;;;;;;;;;;;22.52;40.82;99672.17;106212;1254;74712;-86
2024/04/13 10:45:11;;;;;;;;;;;;;;;22.78;40.71;99671.89;106171;1256;61347;-84
2024/04/13 10:47:42;;;;;;;;;;;;;;;22.50;40.55;99666.70;105945;1256;61350;-86
2024/04/13 10:50:10;;;;;;;;;;;;;;;22.44;41.15;99665.09;105947;1257;73453;-85
2024/04/13 10:52:38;;;;;;;;;;;;;;;22.42;41.36;99662.29;105692;1256;68738;-84
2024/04/13 10:55:05;;;;;;;;;;;;;;;22.48;41.43;99656.66;105962;1256;74896;-81
2024/04/13 10:57:33;;;;;;;;;;;;;;;22.06;41.84;99656.80;106093;1256;61222;-87
2024/04/13 11:00:01;;;;;;;;;;;;;;;22.15;42.07;99658.84;105960;1255;61480;-85
2024/04/13 11:02:30;;;;;;;;;;;;;;;21.97;42.58;99651.13;106059;1256;73768;-85
2024/04/13 11:04:57;;;;;;;;;;;;;;;21.79;42.71;99646.10;106264;1256;67225;-87
2024/04/13 11:07:25;;;;;;;;;;;;;;;21.59;43.25;99643.30;106077;1258;71745;-87
2024/04/13 11:09:52;;;;;;;;;;;;;;;21.87;42.85;99637.23;106218;1256;61411;-85
2024/04/13 11:12:22;;;;;;;;;;;;;;;22.13;42.25;99636.56;106307;1256;61255;-83
2024/04/13 11:14:49;;;;;;;;;;;;;;;21.97;41.58;99631.21;106290;1256;73887;-85
2024/04/13 11:17:17;;;;;;;;;;;;;;;22.24;41.21;99633.58;106261;1259;67466;-85
2024/04/13 11:19:44;;;;;;;;;;;;;;;22.27;41.09;99628.41;106256;1256;72715;-84
2024/04/13 11:22:11;;;;;;;;;;;;;;;22.16;40.94;99626.52;106501;1259;61655;-85
2024/04/13 11:24:41;;;;;;;;;;;;;;;22.46;40.82;99630.31;106526;1253;61328;-86
2024/04/13 11:27:08;;;;;;;;;;;;;;;22.41;40.57;99620.34;106500;1252;72831;-85
2024/04/13 11:29:36;;;;;;;;;;;;;;;22.50;40.95;99626.09;106490;1253;66628;-85
2024/04/13 11:32:03;;;;;;;;;;;;;;;22.88;39.79;99619.71;106596;1258;70675;-85
2024/04/13 11:34:35;;;;;;;;;;;;;;;22.92;39.79;99624.40;106770;1257;61372;-84
2024/04/13 11:37:02;;;;;;;;;;;;;;;23.13;39.63;99622.21;107121;1254;61090;-81
2024/04/13 11:39:36;;;;;;;;;;;;;;;22.79;39.29;99615.14;107004;1253;73472;-84
2024/04/13 11:42:06;;;;;;;;;;;;;;;22.64;39.45;99619.83;106959;1257;67286;-86
2024/04/13 11:44:36;;;;;;;;;;;;;;;22.56;39.30;99614.85;106982;1253;72922;-85
2024/04/13 11:47:04;;;;;;;;;;;;;;;22.71;39.62;99614.52;106641;1253;61224;-83
2024/04/13 11:49:32;;;;;;;;;;;;;;;22.48;40.50;99608.76;106863;1253;61260;-84
2024/04/13 11:52:04;;;;;;;;;;;;;;;22.69;40.15;99602.14;106408;1258;76800;-85
2024/04/13 11:54:32;;;;;;;;;;;;;;;22.55;40.71;99592.20;106379;1253;68288;-83
2024/04/13 11:56:59;;;;;;;;;;;;;;;22.47;41.02;99594.64;106360;1253;72681;-84
2024/04/13 11:59:27;;;;;;;;;;;;;;;22.45;41.56;99594.10;106488;1254;62436;-85
2024/04/13 12:01:54;;;;;;;;;;;;;;;22.23;41.59;99591.52;106157;1253;61310;-86
2024/04/13 12:04:22;;;;;;;;;;;;;;;22.11;41.95;99590.55;106731;1253;73483;-85
2024/04/13 12:06:50;;;;;;;;;;;;;;;22.46;41.28;99580.29;106317;1253;70927;-85
2024/04/13 12:09:17;;;;;;;;;;;;;;;23.00;40.68;99578.34;106333;1253;71891;-83
2024/04/13 12:11:45;;;;;;;;;;;;;;;23.23;40.10;99572.73;106196;1256;61795;-85
2024/04/13 12:14:13;;;;;;;;;;;;;;;23.41;40.08;99570.08;106579;1253;61324;-85
2024/04/13 12:16:44;;;;;;;;;;;;;;;23.53;39.85;99569.77;106345;1257;73420;-83
2024/04/13 12:19:11;;;;;;;;;;;;;;;23.40;39.63;99571.98;106218;1257;67557;-85
2024/04/13 12:21:40;;;;;;;;;;;;;;;23.28;40.03;99574.63;106065;1253;71571;-85
2024/04/13 12:24:08;;;;;;;;;;;;;;;23.25;40.19;99574.04;106182;1253;61322;-85
2024/04/13 12:26:35;;;;;;;;;;;;;;;23.31;40.42;99574.17;106260;1253;61376;-83
2024/04/13 12:29:04;;;;;;;;;;;;;;;22.92;40.84;99567.92;106345;1258;74647;-85
2024/04/13 12:31:31;;;;;;;;;;;;;;;22.67;41.45;99567.42;106452;1256;70088;-83
2024/04/13 12:33:59;;;;;;;;;;;;;;;22.46;42.14;99563.34;106254;1258;71487;-85
2024/04/13 12:36:27;;;;;;;;;;;;;;;22.35;42.39;99561.28;106299;1253;61315;-83
2024/04/13 12:38:54;;;;;;;;;;;;;;;21.88;43.24;99557.03;106254;1253;61344;-85
2024/04/13 12:41:21;;;;;;;;;;;;;;;21.64;43.72;99553.48;106218;1253;74691;-84
2024/04/13 12:43:49;;;;;;;;;;;;;;;21.68;43.89;99547.45;106184;1258;68722;-80
2024/04/13 12:46:16;;;;;;;;;;;;;;;22.03;43.54;99537.86;106860;1253;71478;-83
2024/04/13 12:48:44;;;;;;;;;;;;;;;22.43;42.98;99538.55;106493;1253;61360;-86
2024/04/13 12:51:15;;;;;;;;;;;;;;;22.90;42.52;99539.54;106090;1253;61167;-86
2024/04/13 12:53:44;;;;;;;;;;;;;;;23.36;42.20;99540.62;106290;1253;73184;-86